ABX weather

Albury Airport
Albury, New South Wales, Australia

Public forecast

Using degrees Celsius for public forecast. Weather courtesy of forecast.io.

METAR (pilot weather report)

Retrieved 2018/10/18 15:00 UTC (48 minutes ago):

YMAY 181500Z AUTO 00000KT 9999 // NCD 11/10 Q1017

TAF (pilot weather forecast)

Forecast is more than 12 hours old.

Closest forecast is Wangaratta Airport, 37.8 nm (70.0 km) WSW. Retrieved 2018/10/18 02:03 UTC (14 hours ago):

TAF YWGT 180056Z 1802/1814 34010KT 9999 -SHRA SCT030 BKN050 FM180800 VRB05KT CAVOK PROB30 1811/1814 0500 FG